createdAt,value
2018-02-10T00:00:35.182Z,83.70
2018-02-10T00:03:02.700Z,83.70
2018-02-10T00:05:30.626Z,83.80
2018-02-10T00:07:58.160Z,83.80
2018-02-10T00:10:26.062Z,83.80
2018-02-10T00:12:53.658Z,83.70
2018-02-10T00:15:21.162Z,83.80
2018-02-10T00:17:48.780Z,83.80
2018-02-10T00:20:16.283Z,83.90
2018-02-10T00:22:48.282Z,83.80
2018-02-10T00:25:15.786Z,83.70
2018-02-10T00:27:43.308Z,83.80
2018-02-10T00:30:11.217Z,83.90
2018-02-10T00:32:39.150Z,84.20
2018-02-10T00:35:07.496Z,84.40
2018-02-10T00:37:35.106Z,84.50
2018-02-10T00:40:02.632Z,84.60
2018-02-10T00:42:30.667Z,84.70
2018-02-10T00:44:58.173Z,84.80
2018-02-10T00:47:25.698Z,84.80
2018-02-10T00:49:53.203Z,84.90
2018-02-10T00:52:20.818Z,84.70
2018-02-10T00:54:48.340Z,84.90
2018-02-10T00:57:17.242Z,85.10
2018-02-10T00:59:45.138Z,85.20
2018-02-10T01:02:13.050Z,85.20
2018-02-10T01:04:40.980Z,85.20
2018-02-10T01:07:08.688Z,85.20
2018-02-10T01:09:36.202Z,85.10
2018-02-10T01:12:03.794Z,85.10
2018-02-10T01:14:31.722Z,84.90
2018-02-10T01:16:59.228Z,85.10
2018-02-10T01:19:26.771Z,85.10
2018-02-10T01:21:54.274Z,85.10
2018-02-10T01:24:22.201Z,84.90
2018-02-10T01:26:49.758Z,85.10
2018-02-10T01:29:17.674Z,84.90
2018-02-10T01:31:45.183Z,84.80
2018-02-10T01:34:12.711Z,84.70
2018-02-10T01:36:40.213Z,84.70
2018-02-10T01:39:07.735Z,84.50
2018-02-10T01:41:35.239Z,84.50
2018-02-10T01:44:02.773Z,84.50
2018-02-10T01:46:30.681Z,84.50
2018-02-10T01:48:58.609Z,84.50
2018-02-10T01:51:26.142Z,84.50
2018-02-10T01:53:53.639Z,84.40
2018-02-10T01:56:21.566Z,84.40
2018-02-10T01:58:49.066Z,84.30
2018-02-10T02:01:16.585Z,84.20
2018-02-10T02:03:44.484Z,84.20
2018-02-10T02:06:12.093Z,84.20
2018-02-10T02:08:39.599Z,84.10
2018-02-10T02:11:07.516Z,84.10
2018-02-10T02:13:35.014Z,84.00
2018-02-10T02:16:02.569Z,84.00
2018-02-10T02:18:30.488Z,84.00
2018-02-10T02:20:58.015Z,83.90
2018-02-10T02:23:25.520Z,83.90
2018-02-10T02:25:53.051Z,83.90
2018-02-10T02:28:21.016Z,84.00
2018-02-10T02:30:48.671Z,84.00
2018-02-10T02:33:16.178Z,84.00
2018-02-10T02:35:43.714Z,84.00
2018-02-10T02:38:11.233Z,84.10
2018-02-10T02:40:39.523Z,84.20
2018-02-10T02:43:07.023Z,84.10
2018-02-10T02:45:34.547Z,84.10
2018-02-10T02:48:03.182Z,84.10
2018-02-10T02:50:31.091Z,84.10
2018-02-10T02:55:27.903Z,84.30
2018-02-10T02:57:56.186Z,84.50
2018-02-10T03:00:23.854Z,84.40
2018-02-10T03:02:52.159Z,84.50
2018-02-10T03:05:20.458Z,84.60
2018-02-10T03:07:48.477Z,84.50
2018-02-10T03:10:15.987Z,84.50
2018-02-10T03:12:43.982Z,84.50
2018-02-10T03:15:11.536Z,84.40
2018-02-10T03:17:39.022Z,84.30
2018-02-10T03:20:07.381Z,84.50
2018-02-10T03:22:34.902Z,84.40
2018-02-10T03:25:02.906Z,84.40
2018-02-10T03:27:30.823Z,84.40
2018-02-10T03:29:58.326Z,84.30
2018-02-10T03:32:26.606Z,84.30
2018-02-10T03:34:54.116Z,84.20
2018-02-10T03:37:21.645Z,84.10
2018-02-10T03:39:49.150Z,84.20
2018-02-10T03:42:16.668Z,84.10
2018-02-10T03:44:44.170Z,84.10
2018-02-10T03:47:11.694Z,84.20
2018-02-10T03:49:39.695Z,84.10
2018-02-10T03:52:07.218Z,84.10
2018-02-10T03:54:35.114Z,84.20
2018-02-10T03:57:03.043Z,84.20
2018-02-10T03:59:30.548Z,84.20
2018-02-10T04:01:58.058Z,84.20
2018-02-10T04:04:26.062Z,84.20
2018-02-10T04:06:53.974Z,84.10
2018-02-10T04:09:21.481Z,84.10
2018-02-10T04:11:49.435Z,84.10
2018-02-10T04:14:17.324Z,84.00
2018-02-10T04:16:44.958Z,83.90
2018-02-10T04:19:12.623Z,83.90
2018-02-10T04:21:40.546Z,84.00
2018-02-10T04:24:08.822Z,84.00
2018-02-10T04:26:36.826Z,84.10
2018-02-10T04:29:05.298Z,84.00
2018-02-10T04:31:32.951Z,84.00
2018-02-10T04:34:00.462Z,84.00
2018-02-10T04:36:27.991Z,84.00
2018-02-10T04:38:55.888Z,84.00
2018-02-10T04:41:23.498Z,83.80
2018-02-10T04:43:51.006Z,83.80
2018-02-10T04:46:18.704Z,83.80
2018-02-10T04:48:46.606Z,83.90
2018-02-10T04:51:14.216Z,83.80
2018-02-10T04:53:43.221Z,83.80
2018-02-10T04:56:10.786Z,83.80
2018-02-10T04:58:38.278Z,83.70
2018-02-10T05:01:05.775Z,83.70
2018-02-10T05:03:33.694Z,83.80
2018-02-10T05:06:01.208Z,83.90
2018-02-10T05:08:29.127Z,83.80
2018-02-10T05:10:56.627Z,83.70
2018-02-10T05:13:24.910Z,83.80
2018-02-10T05:15:52.454Z,83.80
2018-02-10T05:18:20.116Z,83.90
2018-02-10T05:20:47.622Z,83.90
2018-02-10T05:23:15.541Z,83.90
2018-02-10T05:25:43.098Z,83.70
2018-02-10T05:28:11.005Z,83.70
2018-02-10T05:30:38.602Z,83.70
2018-02-10T05:33:06.202Z,83.80
2018-02-10T05:35:33.699Z,83.90
2018-02-10T05:38:01.222Z,83.80
2018-02-10T05:40:29.120Z,84.00
2018-02-10T05:42:57.537Z,83.90
2018-02-10T05:45:25.632Z,83.80
2018-02-10T05:47:53.607Z,83.70
2018-02-10T05:50:21.520Z,83.80
2018-02-10T05:52:50.700Z,83.80
2018-02-10T05:55:19.196Z,83.80
2018-02-10T05:57:46.951Z,83.80
2018-02-10T06:00:14.465Z,83.80
2018-02-10T06:02:41.993Z,83.90
2018-02-10T06:05:09.491Z,83.90
2018-02-10T06:07:37.414Z,83.90
2018-02-10T06:10:04.947Z,84.00
2018-02-10T06:12:32.873Z,84.00
2018-02-10T06:15:00.962Z,84.00
2018-02-10T06:17:28.625Z,84.00
2018-02-10T06:19:56.131Z,84.00
2018-02-10T06:22:23.745Z,84.00
2018-02-10T06:24:51.630Z,83.90
2018-02-10T06:27:19.177Z,83.90
2018-02-10T06:29:46.715Z,83.90
2018-02-10T06:32:14.247Z,83.90
2018-02-10T06:34:42.244Z,84.10
2018-02-10T06:37:10.530Z,84.00
2018-02-10T06:39:38.039Z,84.00
2018-02-10T06:42:05.978Z,84.20
2018-02-10T06:44:33.882Z,84.20
2018-02-10T06:47:01.968Z,84.20
2018-02-10T06:49:29.492Z,84.30
2018-02-10T06:51:57.394Z,84.40
2018-02-10T06:54:25.762Z,84.50
2018-02-10T06:56:53.261Z,84.40
2018-02-10T06:59:20.892Z,84.40
2018-02-10T07:01:48.401Z,84.40
2018-02-10T07:04:16.397Z,84.20
2018-02-10T07:06:44.059Z,84.30
2018-02-10T07:09:11.590Z,84.20
2018-02-10T07:11:39.571Z,84.30
2018-02-10T07:14:07.107Z,84.00
2018-02-10T07:16:35.007Z,84.20
2018-02-10T07:19:02.552Z,84.20
2018-02-10T07:21:30.046Z,84.00
2018-02-10T07:23:57.871Z,84.10
2018-02-10T07:26:25.368Z,84.10
2018-02-10T07:28:52.893Z,84.10
2018-02-10T07:31:20.426Z,84.00
2018-02-10T07:33:47.937Z,83.90
2018-02-10T07:36:15.454Z,83.80
2018-02-10T07:38:43.092Z,84.00
2018-02-10T07:41:10.651Z,83.90
2018-02-10T07:43:39.325Z,84.00
2018-02-10T07:46:06.955Z,83.90
2018-02-10T07:48:34.661Z,83.90
2018-02-10T07:51:02.208Z,83.90
2018-02-10T07:53:30.154Z,83.80
2018-02-10T07:55:58.275Z,83.80
2018-02-10T07:58:25.782Z,83.80
2018-02-10T08:00:53.738Z,84.00
2018-02-10T08:03:21.242Z,84.00
2018-02-10T08:05:48.775Z,84.00
2018-02-10T08:08:16.281Z,84.00
2018-02-10T08:10:43.998Z,84.10
2018-02-10T08:13:11.894Z,84.00
2018-02-10T08:15:39.418Z,83.90
2018-02-10T08:18:06.960Z,84.00
2018-02-10T08:20:34.485Z,83.90
2018-02-10T08:23:02.750Z,83.90
2018-02-10T08:25:30.280Z,83.90
2018-02-10T08:27:57.808Z,84.00
2018-02-10T08:30:25.387Z,84.10
2018-02-10T08:32:53.674Z,83.90
2018-02-10T08:35:21.198Z,83.90
2018-02-10T08:37:48.730Z,83.90
2018-02-10T08:40:16.730Z,83.90
2018-02-10T08:42:44.770Z,83.90
2018-02-10T08:45:12.273Z,83.90
2018-02-10T08:47:39.794Z,83.80
2018-02-10T08:50:07.306Z,83.50
2018-02-10T08:52:34.842Z,83.30
2018-02-10T08:55:02.350Z,83.30
2018-02-10T08:57:29.921Z,83.10
2018-02-10T08:59:57.984Z,83.10
2018-02-10T09:02:25.514Z,83.10
2018-02-10T09:04:53.425Z,82.90
2018-02-10T09:07:21.346Z,83.00
2018-02-10T09:09:48.847Z,82.60
2018-02-10T09:12:17.517Z,82.70
2018-02-10T09:14:45.581Z,82.60
2018-02-10T09:17:13.233Z,82.00
2018-02-10T09:19:40.734Z,82.30
2018-02-10T09:22:08.749Z,82.30
2018-02-10T09:24:36.260Z,81.80
2018-02-10T09:27:03.786Z,82.00
2018-02-10T09:29:31.688Z,81.80
2018-02-10T09:31:59.606Z,81.90
2018-02-10T09:34:27.134Z,81.90
2018-02-10T09:36:54.706Z,82.00
2018-02-10T09:39:22.232Z,81.70
2018-02-10T09:41:50.144Z,81.70
2018-02-10T09:44:17.687Z,81.70
2018-02-10T09:46:45.580Z,81.40
2018-02-10T09:49:13.523Z,81.30
2018-02-10T09:51:41.042Z,81.50
2018-02-10T09:54:08.558Z,81.60
2018-02-10T09:56:36.461Z,81.60
2018-02-10T09:59:04.401Z,81.40
2018-02-10T10:01:32.742Z,81.60
2018-02-10T10:04:00.264Z,81.70
2018-02-10T10:06:27.836Z,81.60
2018-02-10T10:08:55.769Z,81.40
2018-02-10T10:11:23.676Z,81.10
2018-02-10T10:13:51.194Z,80.90
2018-02-10T10:16:19.104Z,81.10
2018-02-10T10:18:46.706Z,81.20
2018-02-10T10:21:14.632Z,81.10
2018-02-10T10:23:42.290Z,80.40
2018-02-10T10:26:10.213Z,80.40
2018-02-10T10:28:38.114Z,80.10
2018-02-10T10:31:06.063Z,80.30
2018-02-10T10:33:33.721Z,80.20
2018-02-10T10:36:01.367Z,79.80
2018-02-10T10:38:29.269Z,79.40
2018-02-10T10:40:56.908Z,79.70
2018-02-10T10:43:25.534Z,79.60
2018-02-10T10:45:53.430Z,79.40
2018-02-10T10:48:21.371Z,79.20
2018-02-10T10:50:48.889Z,78.70
2018-02-10T10:53:16.790Z,78.90
2018-02-10T10:55:44.704Z,79.00
2018-02-10T10:58:12.206Z,78.80
2018-02-10T11:00:40.223Z,78.90
2018-02-10T11:03:07.745Z,78.40
2018-02-10T11:05:36.116Z,78.80
2018-02-10T11:08:04.026Z,78.80
2018-02-10T11:10:32.412Z,78.80
2018-02-10T11:12:59.939Z,78.80
2018-02-10T11:15:27.447Z,78.60
2018-02-10T11:17:54.979Z,78.60
2018-02-10T11:20:22.514Z,78.40
2018-02-10T11:22:50.432Z,78.30
2018-02-10T11:25:18.443Z,78.20
2018-02-10T11:27:45.972Z,78.10
2018-02-10T11:30:13.861Z,78.30
2018-02-10T11:32:41.774Z,77.60
2018-02-10T11:35:09.290Z,77.50
2018-02-10T11:37:37.538Z,77.60
2018-02-10T11:40:05.041Z,77.60
2018-02-10T11:42:32.574Z,77.60
2018-02-10T11:45:00.078Z,77.50
2018-02-10T11:47:27.595Z,77.10
2018-02-10T11:49:55.093Z,77.40
2018-02-10T11:52:23.018Z,76.90
2018-02-10T11:54:50.918Z,77.20
2018-02-10T11:57:18.829Z,77.10
2018-02-10T11:59:46.327Z,77.20
2018-02-10T12:02:15.173Z,77.10
2018-02-10T12:04:43.445Z,77.10
2018-02-10T12:07:11.360Z,77.20
2018-02-10T12:09:38.955Z,77.20
2018-02-10T12:12:06.878Z,77.20
2018-02-10T12:14:34.384Z,77.20
2018-02-10T12:17:02.298Z,77.10
2018-02-10T12:19:29.998Z,77.30
2018-02-10T12:21:57.920Z,77.30
2018-02-10T12:24:25.545Z,76.80
2018-02-10T12:26:53.068Z,77.30
2018-02-10T12:29:20.565Z,77.20
2018-02-10T12:31:48.480Z,77.30
2018-02-10T12:34:16.154Z,77.40
2018-02-10T12:36:43.696Z,77.30
2018-02-10T12:39:12.099Z,77.30
2018-02-10T12:41:40.404Z,77.30
2018-02-10T12:44:08.358Z,77.30
2018-02-10T12:46:35.866Z,77.50
2018-02-10T12:52:08.197Z,77.60
2018-02-10T12:54:35.707Z,77.50
2018-02-10T12:57:03.619Z,77.60
2018-02-10T12:59:31.156Z,77.50
2018-02-10T13:01:59.095Z,78.00
2018-02-10T13:04:26.599Z,77.80
2018-02-10T13:06:54.125Z,77.60
2018-02-10T13:09:21.678Z,77.40
2018-02-10T13:11:49.170Z,77.40
2018-02-10T13:14:16.693Z,77.20
2018-02-10T13:16:44.601Z,77.00
2018-02-10T13:19:12.322Z,76.90
2018-02-10T13:21:39.975Z,76.90
2018-02-10T13:24:07.513Z,76.80
2018-02-10T13:26:35.084Z,77.10
2018-02-10T13:29:02.602Z,76.90
2018-02-10T13:31:30.504Z,77.10
2018-02-10T13:33:58.423Z,77.10
2018-02-10T13:36:26.327Z,77.00
2018-02-10T13:38:53.849Z,77.20
2018-02-10T13:41:21.354Z,77.00
2018-02-10T13:43:48.874Z,77.00
2018-02-10T13:46:16.376Z,76.80
2018-02-10T13:48:43.974Z,77.10
2018-02-10T13:51:11.662Z,76.90
2018-02-10T13:53:39.181Z,77.10
2018-02-10T13:56:07.078Z,77.10
2018-02-10T13:58:34.609Z,76.70
2018-02-10T14:01:02.298Z,76.70
2018-02-10T14:03:30.582Z,76.80
2018-02-10T14:05:58.091Z,76.70
2018-02-10T14:08:25.698Z,76.70
2018-02-10T14:10:53.598Z,76.80
2018-02-10T14:13:21.635Z,77.10
2018-02-10T14:15:49.157Z,77.20
2018-02-10T14:18:17.189Z,77.10
2018-02-10T14:20:44.686Z,77.10
2018-02-10T14:23:12.703Z,77.10
2018-02-10T14:25:40.199Z,77.20
2018-02-10T14:28:08.192Z,77.10
2018-02-10T14:30:36.096Z,77.30
2018-02-10T14:33:03.616Z,77.30
2018-02-10T14:35:31.527Z,77.40
2018-02-10T14:37:59.659Z,77.30
2018-02-10T14:40:27.155Z,77.30
2018-02-10T14:42:54.746Z,77.50
2018-02-10T14:45:22.413Z,77.50
2018-02-10T14:47:49.938Z,77.50
2018-02-10T14:50:17.938Z,77.40
2018-02-10T14:52:45.464Z,77.60
2018-02-10T14:55:13.470Z,77.60
2018-02-10T14:57:40.990Z,77.50
2018-02-10T15:00:08.895Z,77.50
2018-02-10T15:02:36.402Z,77.50
2018-02-10T15:05:04.493Z,77.70
2018-02-10T15:07:32.386Z,77.50
2018-02-10T15:12:28.760Z,77.70
2018-02-10T15:14:56.291Z,77.70
2018-02-10T15:17:23.811Z,77.70
2018-02-10T15:19:51.722Z,77.70
2018-02-10T15:22:19.221Z,77.80
2018-02-10T15:24:47.515Z,77.80
2018-02-10T15:27:15.018Z,78.20
2018-02-10T15:29:54.139Z,78.20
2018-02-10T15:32:33.402Z,78.30
2018-02-10T15:35:01.314Z,78.40
2018-02-10T15:37:29.214Z,78.50
2018-02-10T15:39:56.898Z,78.50
2018-02-10T15:42:24.404Z,78.70
2018-02-10T15:44:52.310Z,78.70
2018-02-10T15:47:20.198Z,78.80
2018-02-10T15:49:47.726Z,78.80
2018-02-10T15:52:15.218Z,78.80
2018-02-10T15:54:42.734Z,78.80
2018-02-10T15:57:10.638Z,78.90
2018-02-10T15:59:38.915Z,78.80
2018-02-10T16:02:06.465Z,79.00
2018-02-10T16:04:34.005Z,79.00
2018-02-10T16:07:01.904Z,79.10
2018-02-10T16:09:30.422Z,79.00
2018-02-10T16:11:57.911Z,79.10
2018-02-10T16:14:25.569Z,79.10
2018-02-10T16:16:53.071Z,79.10
2018-02-10T16:19:20.609Z,79.20
2018-02-10T16:21:48.123Z,79.20
2018-02-10T16:24:15.634Z,79.40
2018-02-10T16:26:43.634Z,79.40
2018-02-10T16:29:11.171Z,79.20
2018-02-10T16:31:39.439Z,79.20
2018-02-10T16:34:06.963Z,79.20
2018-02-10T16:36:34.463Z,79.20
2018-02-10T16:39:01.995Z,79.20
2018-02-10T16:41:29.886Z,79.40
2018-02-10T16:43:57.796Z,79.40
2018-02-10T16:46:25.348Z,79.50
2018-02-10T16:48:53.265Z,79.50
2018-02-10T16:51:21.167Z,79.60
2018-02-10T16:53:48.720Z,79.70
2018-02-10T16:56:16.606Z,79.70
2018-02-10T16:58:44.445Z,79.90
2018-02-10T17:01:11.963Z,79.80
2018-02-10T17:03:39.459Z,79.50
2018-02-10T17:06:07.760Z,79.70
2018-02-10T17:08:35.266Z,79.80
2018-02-10T17:11:02.952Z,79.90
2018-02-10T17:13:30.859Z,80.00
2018-02-10T17:15:58.382Z,80.00
2018-02-10T17:18:25.895Z,80.00
2018-02-10T17:20:53.429Z,80.20
2018-02-10T17:23:21.446Z,80.20
2018-02-10T17:25:48.971Z,80.10
2018-02-10T17:28:17.254Z,80.20
2018-02-10T17:30:44.839Z,80.20
2018-02-10T17:33:12.491Z,80.30
2018-02-10T17:35:40.440Z,80.30
2018-02-10T17:38:08.372Z,80.30
2018-02-10T17:40:36.299Z,80.40
2018-02-10T17:43:03.820Z,80.40
2018-02-10T17:45:31.347Z,80.40
2018-02-10T17:47:58.855Z,80.40
2018-02-10T17:50:26.754Z,80.40
2018-02-10T17:52:54.690Z,80.30
2018-02-10T17:55:23.706Z,80.40
2018-02-10T17:57:52.364Z,80.50
2018-02-10T18:00:20.394Z,80.50
2018-02-10T18:02:48.331Z,80.80
2018-02-10T18:05:15.849Z,80.40
2018-02-10T18:07:43.787Z,80.40
2018-02-10T18:10:11.295Z,80.50
2018-02-10T18:12:38.835Z,80.80
2018-02-10T18:15:06.338Z,80.80
2018-02-10T18:17:34.260Z,80.90
2018-02-10T18:20:02.895Z,80.90
2018-02-10T18:22:30.451Z,81.00
2018-02-10T18:24:58.360Z,81.10
2018-02-10T18:27:25.890Z,81.20
2018-02-10T18:29:53.812Z,81.30
2018-02-10T18:32:21.527Z,81.30
2018-02-10T18:34:49.034Z,81.30
2018-02-10T18:37:17.704Z,81.40
2018-02-10T18:39:45.219Z,81.40
2018-02-10T18:42:12.774Z,81.60
2018-02-10T18:44:40.282Z,81.70
2018-02-10T18:47:07.791Z,81.70
2018-02-10T18:49:35.314Z,81.90
2018-02-10T18:52:03.065Z,81.90
2018-02-10T18:54:30.982Z,81.80
2018-02-10T18:56:58.875Z,81.80
2018-02-10T18:59:26.406Z,81.90
2018-02-10T19:01:53.919Z,81.90
2018-02-10T19:04:21.890Z,81.90
2018-02-10T19:06:49.965Z,82.10
2018-02-10T19:09:17.626Z,82.30
2018-02-10T19:11:45.529Z,82.30
2018-02-10T19:14:13.051Z,82.40
2018-02-10T19:19:09.909Z,82.70
2018-02-10T19:21:37.407Z,82.80
2018-02-10T19:24:06.194Z,82.80
2018-02-10T19:26:33.885Z,82.80
2018-02-10T19:29:01.389Z,82.80
2018-02-10T19:31:28.910Z,82.90
2018-02-10T19:33:56.408Z,83.20
2018-02-10T19:36:24.335Z,83.30
2018-02-10T19:38:52.398Z,83.30
2018-02-10T19:41:20.313Z,83.30
2018-02-10T19:43:47.827Z,83.30
2018-02-10T19:46:16.169Z,83.40
2018-02-10T19:48:44.049Z,83.40
2018-02-10T19:51:13.102Z,83.40
2018-02-10T19:53:41.418Z,83.30
2018-02-10T19:56:09.325Z,83.50
2018-02-10T19:58:37.268Z,83.50
2018-02-10T20:01:04.779Z,83.50
2018-02-10T20:03:33.557Z,83.50
2018-02-10T20:06:01.470Z,83.50
2018-02-10T20:08:28.984Z,83.40
2018-02-10T20:10:56.922Z,83.70
2018-02-10T20:13:24.418Z,83.70
2018-02-10T20:15:51.935Z,83.80
2018-02-10T20:18:19.442Z,83.70
2018-02-10T20:20:47.259Z,83.50
2018-02-10T20:23:15.378Z,83.50
2018-02-10T20:25:42.906Z,83.70
2018-02-10T20:28:10.486Z,83.70
2018-02-10T20:33:06.878Z,83.70
2018-02-10T20:35:34.402Z,83.80
2018-02-10T20:38:01.920Z,83.70
2018-02-10T20:40:29.595Z,83.80
2018-02-10T20:42:57.102Z,83.80
2018-02-10T20:45:25.009Z,83.90
2018-02-10T20:47:52.526Z,83.70
2018-02-10T20:50:20.229Z,83.70
2018-02-10T20:52:48.147Z,83.80
2018-02-10T20:55:16.063Z,83.80
2018-02-10T20:57:43.723Z,83.80
2018-02-10T21:00:11.283Z,83.80
2018-02-10T21:02:39.199Z,83.80
2018-02-10T21:05:06.706Z,83.80
2018-02-10T21:07:34.246Z,83.70
2018-02-10T21:10:02.523Z,83.80
2018-02-10T21:12:30.047Z,83.80
2018-02-10T21:14:57.945Z,83.80
2018-02-10T21:17:25.507Z,83.80
2018-02-10T21:19:53.032Z,83.70
2018-02-10T21:22:20.958Z,83.70
2018-02-10T21:24:48.670Z,83.70
2018-02-10T21:27:16.188Z,83.70
2018-02-10T21:29:44.080Z,83.40
2018-02-10T21:32:11.990Z,83.30
2018-02-10T21:34:40.266Z,83.30
2018-02-10T21:37:08.187Z,83.20
2018-02-10T21:39:35.699Z,83.20
2018-02-10T21:42:03.639Z,83.30
2018-02-10T21:44:31.208Z,83.30
2018-02-10T21:46:59.046Z,83.30
2018-02-10T21:49:27.335Z,83.30
2018-02-10T21:51:55.291Z,83.40
2018-02-10T21:54:23.564Z,83.40
2018-02-10T21:56:51.122Z,83.40
2018-02-10T21:59:18.632Z,83.40
2018-02-10T22:01:46.554Z,83.50
2018-02-10T22:04:14.098Z,83.40
2018-02-10T22:06:41.998Z,83.50
2018-02-10T22:09:09.498Z,83.70
2018-02-10T22:11:37.034Z,83.70
2018-02-10T22:14:04.532Z,83.80
2018-02-10T22:16:32.830Z,83.80
2018-02-10T22:19:00.728Z,83.80
2018-02-10T22:21:29.039Z,83.70
2018-02-10T22:23:56.538Z,83.50
2018-02-10T22:26:24.263Z,83.40
2018-02-10T22:28:51.771Z,83.40
2018-02-10T22:31:19.682Z,83.40
2018-02-10T22:33:47.187Z,83.30
2018-02-10T22:36:14.810Z,83.30
2018-02-10T22:38:42.322Z,83.30
2018-02-10T22:41:09.855Z,83.40
2018-02-10T22:43:37.843Z,83.40
2018-02-10T22:46:05.510Z,83.40
2018-02-10T22:48:33.455Z,83.40
2018-02-10T22:51:01.436Z,83.50
2018-02-10T22:53:28.946Z,83.50
2018-02-10T22:55:56.886Z,83.70
2018-02-10T22:58:24.388Z,83.50
2018-02-10T23:00:52.277Z,83.50
2018-02-10T23:03:19.935Z,83.50
2018-02-10T23:05:48.015Z,83.70
2018-02-10T23:08:15.925Z,83.50
2018-02-10T23:10:43.818Z,83.40
2018-02-10T23:13:11.730Z,83.30
2018-02-10T23:15:39.237Z,83.30
2018-02-10T23:18:06.762Z,83.40
2018-02-10T23:20:34.267Z,83.40
2018-02-10T23:23:01.795Z,83.30
2018-02-10T23:25:29.306Z,83.30
2018-02-10T23:27:56.831Z,83.40
2018-02-10T23:30:24.335Z,83.40
2018-02-10T23:32:51.855Z,83.30
2018-02-10T23:35:29.118Z,83.30
2018-02-10T23:37:57.595Z,83.40
2018-02-10T23:40:25.105Z,83.30
2018-02-10T23:42:52.635Z,83.30
2018-02-10T23:45:20.143Z,83.30
2018-02-10T23:47:48.070Z,83.30
2018-02-10T23:50:15.971Z,83.30
2018-02-10T23:52:43.901Z,83.30
2018-02-10T23:55:11.400Z,83.30
2018-02-10T23:57:38.973Z,83.20
